Time;durP1;ratioP1;P1;durP2;ratioP2;P2;SDS_P1;SDS_P2;PMS_P1;PMS_P2;Temp;Humidity;BMP_temperature;BMP_pressure;BME280_temperature;BME280_humidity;BME280_pressure;Samples;Min_cycle;Max_cycle;Signal;HPM_P1;HPM_P2
2021/05/23 00:00:34;;;;;;;12.32;7.38;;;;;;;12.71;92.57;97113.56;4927772;29;20095;-60
2021/05/23 00:03:04;;;;;;;11.43;7.38;;;;;;;12.80;93.16;97134.31;4927092;29;20031;-60
2021/05/23 00:05:30;;;;;;;8.55;6.40;;;;;;;12.79;92.77;97121.56;4958167;28;20115;-61
2021/05/23 00:08:03;;;;;;;6.10;5.53;;;;;;;12.74;92.84;97121.91;4928375;29;20055;-60
2021/05/23 00:10:30;;;;;;;5.90;5.30;;;;;;;12.66;93.61;97119.47;4928179;29;20068;-60
2021/05/23 00:12:58;;;;;;;8.93;5.80;;;;;;;12.62;93.99;97124.97;4928200;29;20046;-60
2021/05/23 00:15:26;;;;;;;6.88;5.68;;;;;;;12.50;94.78;97125.25;4927686;29;20051;-60
2021/05/23 00:17:52;;;;;;;9.13;6.47;;;;;;;12.46;95.71;97135.50;4926097;29;20443;-61
2021/05/23 00:20:18;;;;;;;6.38;5.78;;;;;;;12.48;95.58;97138.72;4927298;29;20856;-59
2021/05/23 00:22:44;;;;;;;8.55;6.55;;;;;;;12.11;95.30;97074.00;4928089;29;20047;-59
2021/05/23 00:25:12;;;;;;;6.80;5.90;;;;;;;12.57;95.58;97142.00;4927715;29;20579;-58
2021/05/23 00:27:38;;;;;;;6.32;5.63;;;;;;;12.50;96.24;97136.38;4927667;29;20046;-59
2021/05/23 00:30:04;;;;;;;6.30;5.70;;;;;;;12.51;96.43;97137.97;4927061;29;20032;-59
2021/05/23 00:32:29;;;;;;;7.97;6.03;;;;;;;12.35;96.53;97112.38;4927434;29;20043;-59
2021/05/23 00:34:55;;;;;;;6.32;5.68;;;;;;;12.54;96.95;97136.38;4925947;29;20545;-59
2021/05/23 00:37:21;;;;;;;5.90;5.30;;;;;;;12.37;96.18;97098.09;4927181;29;20047;-59
2021/05/23 00:39:47;;;;;;;7.85;6.25;;;;;;;12.68;95.75;97142.91;4927538;29;20040;-59
2021/05/23 00:42:13;;;;;;;5.95;5.38;;;;;;;12.08;95.29;97070.03;4923336;28;20056;-59
2021/05/23 00:44:38;;;;;;;9.57;6.60;;;;;;;12.21;95.41;97095.56;4927300;29;20034;-60
2021/05/23 00:47:04;;;;;;;6.75;5.95;;;;;;;12.16;94.97;97076.44;4927051;29;20035;-61
2021/05/23 00:49:29;;;;;;;10.85;7.97;;;;;;;12.56;95.06;97162.63;4925770;29;20040;-59
2021/05/23 00:51:55;;;;;;;6.57;5.93;;;;;;;12.27;93.52;97105.13;4926718;29;20430;-59
2021/05/23 00:54:20;;;;;;;6.25;5.65;;;;;;;12.50;93.12;97141.94;4927205;29;20040;-60
2021/05/23 00:56:46;;;;;;;6.53;5.57;;;;;;;12.41;93.42;97149.75;4927111;29;20506;-59
2021/05/23 00:59:12;;;;;;;6.63;5.97;;;;;;;11.79;95.09;97045.09;4925500;29;20024;-62
2021/05/23 01:01:43;;;;;;;8.10;6.60;;;;;;;12.38;94.53;97142.16;4925693;29;20066;-60
2021/05/23 01:04:09;;;;;;;8.88;7.55;;;;;;;12.06;93.27;97077.16;4957788;28;20118;-60
2021/05/23 01:06:35;;;;;;;7.70;6.93;;;;;;;12.35;93.20;97128.22;4925319;29;20236;-60
2021/05/23 01:09:01;;;;;;;9.43;7.07;;;;;;;12.04;94.07;97085.06;4927067;29;20042;-59
2021/05/23 01:11:29;;;;;;;11.25;6.00;;;;;;;12.34;94.78;97127.47;4926828;29;20039;-60
2021/05/23 01:13:58;;;;;;;6.90;6.18;;;;;;;12.36;94.03;97119.53;4927023;29;20412;-59
2021/05/23 01:16:32;;;;;;;6.70;5.97;;;;;;;12.38;93.94;97119.16;4926847;29;20050;-59
2021/05/23 01:19:22;;;;;;;7.68;6.10;;;;;;;12.39;95.01;97118.78;4927040;29;20055;-59
2021/05/23 01:22:11;;;;;;;7.65;5.78;;;;;;;11.91;93.94;97058.72;4925171;29;20054;-60
2021/05/23 01:24:42;;;;;;;5.75;5.13;;;;;;;12.26;94.65;97125.78;4957355;28;20471;-60
2021/05/23 01:27:12;;;;;;;6.65;6.03;;;;;;;11.59;95.48;97049.16;4924821;29;20040;-60
2021/05/23 01:29:39;;;;;;;6.90;6.20;;;;;;;12.02;96.00;97121.53;4926888;29;20040;-60
2021/05/23 01:32:05;;;;;;;6.60;5.90;;;;;;;12.01;97.40;97121.91;4924560;29;20430;-60
2021/05/23 01:34:31;;;;;;;7.57;6.05;;;;;;;11.98;96.65;97126.22;4926606;29;20116;-59
2021/05/23 01:36:59;;;;;;;7.90;6.82;;;;;;;11.21;96.48;97030.81;4924859;29;20140;-61
2021/05/23 01:39:25;;;;;;;8.48;6.45;;;;;;;11.88;96.19;97120.53;4925006;29;20034;-60
2021/05/23 01:41:54;;;;;;;8.27;7.30;;;;;;;11.65;96.66;97112.28;4926160;29;20063;-60
2021/05/23 01:44:20;;;;;;;9.05;7.93;;;;;;;11.77;96.10;97119.59;4926427;29;20066;-60
2021/05/23 01:46:46;;;;;;;11.15;7.18;;;;;;;11.79;96.93;97128.34;4926505;29;20075;-60
2021/05/23 01:49:11;;;;;;;9.07;7.82;;;;;;;11.27;96.86;97036.84;4926198;29;20043;-60
2021/05/23 01:51:37;;;;;;;9.38;7.38;;;;;;;11.84;96.42;97136.31;4926482;29;20047;-62
2021/05/23 01:54:03;;;;;;;10.88;6.90;;;;;;;11.87;97.99;97136.38;4924850;29;20039;-60
2021/05/23 01:56:29;;;;;;;7.70;6.90;;;;;;;11.92;99.46;97121.38;4926388;29;20043;-59
2021/05/23 01:58:54;;;;;;;9.18;6.70;;;;;;;11.70;99.32;97062.03;4926872;29;20440;-62
2021/05/23 02:01:20;;;;;;;6.93;6.20;;;;;;;12.09;98.43;97113.25;4926433;29;20035;-60
2021/05/23 02:03:46;;;;;;;6.82;6.18;;;;;;;12.08;98.29;97113.63;4926723;29;20036;-59
2021/05/23 02:06:12;;;;;;;7.05;6.35;;;;;;;11.91;99.59;97097.56;4925642;29;20091;-60
2021/05/23 02:08:38;;;;;;;8.52;5.82;;;;;;;11.62;98.06;97028.97;4924703;29;20142;-62
2021/05/23 02:11:09;;;;;;;7.60;5.50;;;;;;;11.71;97.49;97057.28;4926159;29;20039;-59
2021/05/23 02:13:36;;;;;;;7.03;6.25;;;;;;;12.00;97.61;97111.94;4926369;29;20049;-62
2021/05/23 02:16:02;;;;;;;8.30;5.88;;;;;;;11.95;98.09;97092.84;4924507;29;20046;-60
2021/05/23 02:18:32;;;;;;;6.80;5.82;;;;;;;12.02;97.51;97099.31;4926332;29;20475;-60
2021/05/23 02:20:57;;;;;;;7.72;5.97;;;;;;;12.03;96.77;97100.09;4924783;29;20256;-59
2021/05/23 02:23:24;;;;;;;7.30;6.50;;;;;;;9.51;95.54;96706.66;4926267;29;20024;-61
2021/05/23 02:25:51;;;;;;;8.07;6.97;;;;;;;11.56;94.43;97041.59;4925868;29;20048;-59
2021/05/23 02:28:19;;;;;;;9.07;6.75;;;;;;;11.87;95.64;97113.41;4926629;29;20038;-60
2021/05/23 02:30:50;;;;;;;7.80;5.78;;;;;;;11.89;96.10;97127.69;4927590;29;20056;-59
2021/05/23 02:33:17;;;;;;;8.80;6.80;;;;;;;11.82;96.94;97116.50;4928033;29;20040;-59
2021/05/23 02:35:47;;;;;;;10.52;7.80;;;;;;;11.71;96.58;97080.25;4929303;29;20130;-59
2021/05/23 02:40:58;;;;;;;8.60;6.53;;;;;;;11.91;96.27;97108.69;4929872;29;20428;-60
2021/05/23 02:43:24;;;;;;;8.55;6.93;;;;;;;11.86;96.11;97107.03;4929595;29;20051;-60
2021/05/23 02:45:50;;;;;;;15.63;8.07;;;;;;;11.24;97.37;97012.63;4929079;29;20035;-61
2021/05/23 02:48:17;;;;;;;7.85;7.07;;;;;;;11.61;98.33;97055.13;4929824;29;20115;-60
2021/05/23 02:50:48;;;;;;;7.20;5.85;;;;;;;12.03;96.94;97106.44;4927584;29;20051;-60
2021/05/23 02:53:14;;;;;;;8.02;6.40;;;;;;;12.10;96.67;97094.63;4929397;29;20039;-60
2021/05/23 02:55:43;;;;;;;6.50;5.90;;;;;;;12.03;96.39;97094.53;4929468;29;20081;-59
2021/05/23 02:58:14;;;;;;;6.72;6.00;;;;;;;11.86;96.64;97070.16;4929742;29;20031;-59
2021/05/23 03:00:41;;;;;;;6.18;5.57;;;;;;;11.60;96.67;97037.66;4929002;29;20061;-59
2021/05/23 03:03:08;;;;;;;7.22;5.15;;;;;;;11.53;95.46;97003.50;4929170;29;20474;-58
2021/05/23 03:05:34;;;;;;;9.65;6.05;;;;;;;11.87;95.18;97069.00;4928796;29;20039;-60
2021/05/23 03:07:59;;;;;;;7.43;6.22;;;;;;;12.01;94.82;97091.38;4959514;28;20430;-59
2021/05/23 03:10:41;;;;;;;7.13;6.43;;;;;;;11.92;95.44;97099.16;4928714;29;20043;-59
2021/05/23 03:13:09;;;;;;;7.47;5.47;;;;;;;11.90;95.29;97093.22;4927446;29;20462;-59
2021/05/23 03:15:35;;;;;;;6.03;5.53;;;;;;;11.80;95.45;97079.97;4927224;29;20107;-59
2021/05/23 03:18:02;;;;;;;7.10;5.97;;;;;;;11.67;94.93;97042.53;4959468;28;20090;-60
2021/05/23 03:20:28;;;;;;;11.27;6.85;;;;;;;12.05;93.66;97104.09;4926980;29;20485;-59
2021/05/23 03:22:57;;;;;;;6.72;6.13;;;;;;;12.02;93.81;97101.28;4927199;29;20616;-62
2021/05/23 03:25:24;;;;;;;9.50;6.70;;;;;;;12.02;93.49;97098.50;4928202;29;20039;-59
2021/05/23 03:27:51;;;;;;;8.23;6.07;;;;;;;12.16;92.38;97112.56;4959114;28;20075;-59
2021/05/23 03:30:23;;;;;;;7.90;6.50;;;;;;;12.16;91.73;97115.31;4928436;29;20040;-59
2021/05/23 03:32:48;;;;;;;8.07;6.90;;;;;;;12.23;91.26;97109.88;4928809;29;20043;-59
2021/05/23 03:35:15;;;;;;;6.97;6.28;;;;;;;11.54;92.48;97011.44;4926566;29;20039;-60
2021/05/23 03:37:41;;;;;;;11.13;8.18;;;;;;;12.41;92.59;97121.97;4928576;29;20047;-59
2021/05/23 03:40:10;;;;;;;11.02;7.07;;;;;;;11.61;93.30;97010.75;4926323;29;20044;-59
2021/05/23 03:42:36;;;;;;;7.43;6.63;;;;;;;12.00;92.07;97006.47;4928378;29;20063;-60
2021/05/23 03:45:02;;;;;;;7.35;6.68;;;;;;;12.90;90.70;97122.47;4928619;29;20078;-60
2021/05/23 03:47:28;;;;;;;8.13;6.68;;;;;;;12.60;92.74;97124.56;4928446;29;20051;-59
2021/05/23 03:49:53;;;;;;;7.93;7.10;;;;;;;12.77;92.63;97115.59;4959304;28;20040;-61
2021/05/23 03:52:20;;;;;;;9.68;6.80;;;;;;;12.54;92.57;97059.41;4928216;29;20036;-60
2021/05/23 03:54:47;;;;;;;7.60;6.90;;;;;;;12.94;92.26;97101.06;4928538;29;20422;-59
2021/05/23 03:57:13;;;;;;;12.45;7.45;;;;;;;13.23;90.83;97116.81;4928168;29;20031;-60
2021/05/23 03:59:38;;;;;;;8.82;6.50;;;;;;;13.42;90.76;97111.00;4928026;29;20028;-60
2021/05/23 04:02:04;;;;;;;6.97;6.28;;;;;;;13.56;90.13;97110.31;4927554;29;20558;-59
2021/05/23 04:04:46;;;;;;;8.43;6.80;;;;;;;13.67;88.28;97111.94;4928000;29;20028;-62
2021/05/23 04:07:12;;;;;;;11.77;5.90;;;;;;;13.57;87.59;97068.16;4927820;29;20537;-59
2021/05/23 04:09:37;;;;;;;6.85;6.15;;;;;;;11.54;86.74;96738.81;4926941;29;20028;-61
2021/05/23 04:12:04;;;;;;;6.38;5.75;;;;;;;14.00;86.02;97102.59;4926108;29;20046;-60
2021/05/23 04:14:30;;;;;;;12.00;7.55;;;;;;;13.83;84.87;97057.97;4958581;28;20509;-61
2021/05/23 04:16:55;;;;;;;9.63;5.97;;;;;;;13.95;85.23;97063.16;4927456;29;20036;-60
2021/05/23 04:19:21;;;;;;;10.52;7.07;;;;;;;14.09;85.00;97118.94;4928064;29;20036;-59
2021/05/23 04:21:46;;;;;;;10.75;7.43;;;;;;;13.53;90.25;97127.78;4927769;29;20039;-61
2021/05/23 04:24:12;;;;;;;24.08;14.45;;;;;;;13.76;89.65;97124.72;4927855;29;20031;-60
2021/05/23 04:26:37;;;;;;;11.23;7.43;;;;;;;13.60;88.81;97061.81;4926016;29;20036;-61
2021/05/23 04:29:03;;;;;;;17.75;10.77;;;;;;;14.22;88.14;97131.34;4927852;29;20030;-61
2021/05/23 04:31:28;;;;;;;7.63;6.80;;;;;;;13.46;90.87;97128.53;4926842;29;20059;-59
2021/05/23 04:33:53;;;;;;;7.07;6.22;;;;;;;13.88;90.52;97118.84;4927776;29;20036;-62
2021/05/23 04:36:19;;;;;;;8.82;6.57;;;;;;;13.83;88.81;97086.59;4927459;29;20488;-61
2021/05/23 04:38:44;;;;;;;6.60;6.00;;;;;;;14.42;88.20;97129.84;4927477;29;20074;-62
2021/05/23 04:41:13;;;;;;;7.43;6.68;;;;;;;14.68;87.07;97146.25;4957357;28;20507;-63
2021/05/23 04:43:39;;;;;;;8.40;6.60;;;;;;;14.72;84.75;97113.59;4927486;29;20126;-61
2021/05/23 04:46:05;;;;;;;8.02;6.05;;;;;;;15.12;83.71;97141.97;4927075;29;20047;-61
2021/05/23 04:48:30;;;;;;;8.10;6.63;;;;;;;15.03;82.16;97098.91;4957808;28;20038;-61
2021/05/23 04:50:56;;;;;;;7.45;6.70;;;;;;;15.55;81.08;97148.38;4927348;29;20046;-61
2021/05/23 04:53:21;;;;;;;7.25;5.90;;;;;;;15.69;79.65;97147.56;4926359;29;20094;-61
2021/05/23 04:55:47;;;;;;;6.35;5.80;;;;;;;15.51;79.64;97108.47;4927028;29;20422;-60
2021/05/23 04:58:12;;;;;;;8.10;5.95;;;;;;;15.89;79.68;97157.91;4927502;29;20035;-61
2021/05/23 05:00:38;;;;;;;7.72;6.05;;;;;;;16.02;78.94;97150.69;4926790;29;20051;-61
2021/05/23 05:03:03;;;;;;;6.70;5.40;;;;;;;15.78;78.26;97129.19;4927419;29;20505;-60
2021/05/23 05:05:29;;;;;;;7.95;7.15;;;;;;;16.13;77.90;97148.66;4924840;29;20050;-61
2021/05/23 05:07:54;;;;;;;7.22;6.55;;;;;;;15.96;77.96;97107.59;4927006;29;20062;-60
2021/05/23 05:10:20;;;;;;;10.38;7.25;;;;;;;16.22;77.98;97148.22;4956949;28;20499;-61
2021/05/23 05:12:45;;;;;;;6.72;6.10;;;;;;;16.25;77.29;97123.06;4926750;29;20036;-61
2021/05/23 05:15:11;;;;;;;6.63;6.13;;;;;;;16.26;76.32;97129.44;4926471;29;20114;-60
2021/05/23 05:17:37;;;;;;;6.15;5.65;;;;;;;16.87;75.36;97172.72;4926631;29;20114;-60
2021/05/23 05:20:06;;;;;;;8.10;6.03;;;;;;;16.60;74.79;97108.94;4925459;29;20130;-62
2021/05/23 05:22:31;;;;;;;9.13;6.68;;;;;;;17.29;74.37;97162.06;4925679;29;20156;-61
2021/05/23 05:24:57;;;;;;;6.38;5.78;;;;;;;17.34;73.51;97164.41;4927123;29;20052;-61
2021/05/23 05:27:24;;;;;;;7.40;5.60;;;;;;;16.55;73.38;97027.44;4926379;29;20034;-60
2021/05/23 05:29:49;;;;;;;5.82;5.15;;;;;;;17.64;72.76;97169.44;4926685;29;20479;-61
2021/05/23 05:32:15;;;;;;;11.35;5.47;;;;;;;17.73;72.43;97161.34;4924461;29;20087;-61
2021/05/23 05:34:41;;;;;;;9.52;6.35;;;;;;;17.97;72.01;97168.72;4924478;29;20558;-61
2021/05/23 05:37:06;;;;;;;6.93;6.22;;;;;;;18.25;71.93;97176.84;4926037;29;20035;-61
2021/05/23 05:39:32;;;;;;;6.85;5.80;;;;;;;18.47;69.76;97181.00;4957319;28;20020;-61
2021/05/23 05:41:58;;;;;;;5.97;5.47;;;;;;;18.52;68.28;97176.94;4926040;29;20051;-61
2021/05/23 05:44:24;;;;;;;6.20;5.80;;;;;;;18.46;69.35;97179.44;4926140;29;20071;-62
2021/05/23 05:46:51;;;;;;;7.40;6.68;;;;;;;18.62;68.27;97196.44;4925782;29;20059;-61
2021/05/23 05:49:16;;;;;;;6.18;5.65;;;;;;;18.18;66.65;97106.00;4926291;29;20039;-61
2021/05/23 05:51:41;;;;;;;6.85;4.93;;;;;;;18.74;66.12;97184.69;4956466;28;20095;-60
2021/05/23 05:54:07;;;;;;;5.20;4.80;;;;;;;18.97;63.43;97198.81;4924518;29;20115;-61
2021/05/23 05:56:33;;;;;;;5.90;5.30;;;;;;;18.58;62.83;97096.69;4926136;29;20040;-61
2021/05/23 05:58:58;;;;;;;6.13;5.63;;;;;;;17.26;61.74;96859.72;4924813;29;20114;-61
2021/05/23 06:01:24;;;;;;;5.40;4.95;;;;;;;19.36;59.93;97154.13;4926322;29;20492;-61
2021/05/23 06:03:49;;;;;;;8.00;4.90;;;;;;;19.67;60.13;97190.59;4925173;29;20032;-59
2021/05/23 06:06:15;;;;;;;5.72;5.22;;;;;;;19.63;61.77;97190.66;4960290;28;20040;-62
2021/05/23 06:08:40;;;;;;;5.85;5.35;;;;;;;19.66;62.17;97189.81;4930293;29;21238;-61
2021/05/23 06:11:06;;;;;;;5.28;4.88;;;;;;;18.80;64.71;97143.72;4929890;29;20152;-60
2021/05/23 06:13:31;;;;;;;5.95;5.38;;;;;;;19.15;63.80;97131.97;4960297;28;20106;-61
2021/05/23 06:15:56;;;;;;;5.55;5.00;;;;;;;19.83;62.36;97182.28;4929877;29;20549;-60
2021/05/23 06:18:27;;;;;;;6.82;5.25;;;;;;;19.92;59.84;97140.34;4930321;29;20111;-61
2021/05/23 06:20:53;;;;;;;6.95;5.10;;;;;;;18.32;59.58;96876.66;4929844;29;20539;-62
2021/05/23 06:23:20;;;;;;;5.53;5.03;;;;;;;19.92;57.76;97123.47;4929654;29;20031;-62
2021/05/23 06:25:46;;;;;;;10.30;5.78;;;;;;;20.39;55.95;97198.97;4929359;29;20046;-62
2021/05/23 06:28:11;;;;;;;6.07;5.57;;;;;;;20.40;55.88;97163.19;4930234;29;20036;-61
2021/05/23 06:30:37;;;;;;;5.82;5.32;;;;;;;20.62;54.87;97195.31;4927745;29;20051;-61
2021/05/23 06:33:02;;;;;;;10.02;5.72;;;;;;;20.81;54.65;97197.34;4929775;29;20043;-63
2021/05/23 06:35:28;;;;;;;5.95;5.53;;;;;;;20.51;55.87;97175.84;4929593;29;20067;-61
2021/05/23 06:37:54;;;;;;;6.43;5.20;;;;;;;20.89;56.10;97193.16;4930865;29;20110;-61
2021/05/23 06:40:21;;;;;;;5.63;5.13;;;;;;;20.41;55.27;97145.06;4929392;29;20044;-62
2021/05/23 06:42:46;;;;;;;7.38;5.13;;;;;;;20.79;56.00;97178.06;4929937;29;20247;-61
2021/05/23 06:45:12;;;;;;;7.28;6.03;;;;;;;20.69;55.28;97116.34;4929143;29;20388;-61
2021/05/23 06:47:37;;;;;;;9.93;7.68;;;;;;;21.37;53.91;97172.78;4929455;29;20110;-61
2021/05/23 06:50:04;;;;;;;9.43;8.00;;;;;;;21.08;53.89;97119.13;4927465;29;20049;-61
2021/05/23 06:52:29;;;;;;;9.45;7.50;;;;;;;21.23;52.72;97111.91;4927286;29;20089;-61
2021/05/23 06:54:55;;;;;;;8.05;7.35;;;;;;;21.92;52.62;97170.66;4929617;29;20550;-60
2021/05/23 06:57:20;;;;;;;7.63;7.03;;;;;;;22.22;51.75;97166.66;4928771;29;20036;-60
2021/05/23 06:59:46;;;;;;;10.10;9.20;;;;;;;22.01;50.29;97128.50;4927459;29;20032;-60
2021/05/23 07:02:12;;;;;;;8.88;8.05;;;;;;;21.96;50.42;97137.50;4928710;29;20411;-60
2021/05/23 07:04:37;;;;;;;9.05;8.20;;;;;;;21.90;51.32;97175.94;4929172;29;20529;-60
2021/05/23 07:07:03;;;;;;;9.10;8.30;;;;;;;22.08;51.81;97170.63;4927207;29;20040;-60
2021/05/23 07:09:28;;;;;;;9.35;7.95;;;;;;;22.25;52.01;97154.47;4927106;29;20050;-61
2021/05/23 07:11:54;;;;;;;8.77;7.97;;;;;;;22.05;51.94;97163.03;4928587;29;20518;-61
2021/05/23 07:14:19;;;;;;;9.40;8.50;;;;;;;21.64;53.53;97162.09;4959637;28;20091;-60
2021/05/23 07:16:45;;;;;;;8.95;8.05;;;;;;;21.57;51.98;97081.28;4927530;29;20489;-61
2021/05/23 07:19:10;;;;;;;8.20;7.43;;;;;;;21.23;51.71;97035.06;4928809;29;20073;-61
2021/05/23 07:21:36;;;;;;;7.93;7.22;;;;;;;22.43;51.15;97157.56;4928047;29;20046;-60
2021/05/23 07:24:02;;;;;;;9.50;8.40;;;;;;;22.32;51.60;97132.47;4928757;29;20094;-60
2021/05/23 07:26:27;;;;;;;9.43;7.13;;;;;;;22.66;50.93;97167.88;4926819;29;20039;-61
2021/05/23 07:28:53;;;;;;;8.20;7.30;;;;;;;22.56;50.33;97141.50;4927100;29;20043;-61
2021/05/23 07:31:19;;;;;;;8.95;8.02;;;;;;;22.57;52.45;97177.00;4926264;29;20055;-62
2021/05/23 07:33:44;;;;;;;8.15;7.32;;;;;;;22.91;51.09;97167.94;4928669;29;20043;-62
2021/05/23 07:36:11;;;;;;;8.73;8.02;;;;;;;22.65;50.53;97104.16;4926557;29;20039;-61
2021/05/23 07:38:37;;;;;;;7.82;7.18;;;;;;;23.31;49.64;97174.81;4927048;29;20063;-60
2021/05/23 07:41:03;;;;;;;9.35;6.90;;;;;;;23.27;49.36;97179.78;4926816;29;20558;-60
2021/05/23 07:43:29;;;;;;;7.53;6.97;;;;;;;23.22;49.44;97143.59;4928439;29;20042;-61
2021/05/23 07:45:54;;;;;;;6.30;5.80;;;;;;;22.80;48.36;97099.66;4928009;29;20463;-61
2021/05/23 07:48:20;;;;;;;6.45;5.95;;;;;;;23.51;48.60;97178.22;4927905;29;20067;-61
2021/05/23 07:50:47;;;;;;;8.60;7.65;;;;;;;23.24;48.50;97078.88;4928412;29;20042;-61
2021/05/23 07:53:13;;;;;;;13.02;9.75;;;;;;;23.59;48.80;97106.84;4927966;29;20036;-61
2021/05/23 07:55:38;;;;;;;8.88;8.00;;;;;;;23.52;49.06;97100.63;4927194;29;20044;-62
2021/05/23 07:58:04;;;;;;;8.60;7.80;;;;;;;23.54;49.43;97166.81;4927767;29;20550;-61
2021/05/23 08:00:30;;;;;;;6.80;6.30;;;;;;;23.49;48.21;97132.66;4926192;29;20055;-61
2021/05/23 08:02:55;;;;;;;8.27;7.55;;;;;;;23.96;48.60;97173.13;4928006;29;20036;-63
2021/05/23 08:05:21;;;;;;;8.57;6.80;;;;;;;24.30;47.47;97173.16;4927474;29;20123;-61
2021/05/23 08:07:46;;;;;;;8.07;7.28;;;;;;;24.44;46.62;97178.31;4925893;29;20038;-62
2021/05/23 08:10:12;;;;;;;7.38;6.88;;;;;;;24.52;46.47;97145.66;4927281;29;20105;-61
2021/05/23 08:12:38;;;;;;;7.18;6.68;;;;;;;24.77;45.66;97162.56;4926503;29;20066;-61
2021/05/23 08:15:05;;;;;;;7.60;6.78;;;;;;;24.76;46.07;97138.34;4958382;28;20498;-60
2021/05/23 08:17:31;;;;;;;7.90;7.30;;;;;;;25.12;45.54;97172.56;4926032;29;20475;-63
2021/05/23 08:19:56;;;;;;;7.70;7.20;;;;;;;25.61;45.93;97169.84;4927699;29;20040;-59
2021/05/23 08:22:22;;;;;;;10.43;9.32;;;;;;;25.68;44.10;97174.47;4927521;29;20028;-60
2021/05/23 08:24:47;;;;;;;7.40;6.70;;;;;;;25.08;45.33;97171.13;4925633;29;20466;-61
2021/05/23 08:27:13;;;;;;;7.00;6.50;;;;;;;25.13;46.10;97174.16;4925615;29;20533;-60
2021/05/23 08:29:38;;;;;;;7.38;6.70;;;;;;;25.30;45.46;97174.72;4925952;29;20429;-61
2021/05/23 08:32:05;;;;;;;6.95;6.45;;;;;;;24.96;46.27;97149.34;4927422;29;20062;-61
2021/05/23 08:34:30;;;;;;;6.93;6.43;;;;;;;25.54;45.45;97167.31;4927451;29;20095;-60
2021/05/23 08:36:56;;;;;;;7.90;6.88;;;;;;;25.82;44.20;97100.09;4927368;29;20407;-60
2021/05/23 08:39:21;;;;;;;8.57;6.72;;;;;;;26.88;42.64;97165.25;4925704;29;20471;-60
2021/05/23 08:41:48;;;;;;;7.55;6.93;;;;;;;27.18;41.52;97155.72;4927087;29;20574;-60
2021/05/23 08:44:20;;;;;;;7.15;6.55;;;;;;;26.89;40.77;97138.38;4927102;29;20110;-60
2021/05/23 08:46:51;;;;;;;6.65;6.25;;;;;;;27.27;40.44;97152.88;4927037;29;20586;-63
2021/05/23 08:49:23;;;;;;;7.32;6.63;;;;;;;26.72;42.21;97117.25;4957351;28;20102;-59
2021/05/23 08:51:49;;;;;;;7.38;6.65;;;;;;;27.58;40.71;97159.13;4926787;29;20059;-60
2021/05/23 08:54:16;;;;;;;6.35;5.95;;;;;;;26.64;40.93;97138.72;4941377;29;20150;-61
2021/05/23 08:56:42;;;;;;;6.28;5.88;;;;;;;26.55;42.08;97169.97;4926909;29;20454;-61
2021/05/23 08:59:09;;;;;;;7.25;6.65;;;;;;;26.63;41.27;97159.88;4927015;29;20909;-61
2021/05/23 09:01:34;;;;;;;8.00;7.43;;;;;;;25.40;43.80;97164.25;4927055;29;20043;-62
2021/05/23 09:04:05;;;;;;;6.82;6.43;;;;;;;25.45;43.73;97098.41;4925451;29;20108;-60
2021/05/23 09:06:35;;;;;;;6.95;6.38;;;;;;;26.11;43.45;97157.28;4926490;29;20036;-61
2021/05/23 09:09:05;;;;;;;7.00;6.50;;;;;;;24.54;42.62;96876.91;4926966;29;20125;-61
2021/05/23 09:11:30;;;;;;;8.00;7.30;;;;;;;26.39;41.91;97144.69;4926720;29;20115;-60
2021/05/23 09:13:56;;;;;;;7.50;6.90;;;;;;;26.57;42.43;97128.44;4926897;29;20043;-61
2021/05/23 09:16:22;;;;;;;6.93;6.32;;;;;;;26.53;42.82;97132.69;4924811;29;20047;-62
2021/05/23 09:18:49;;;;;;;7.20;6.65;;;;;;;26.63;41.97;97143.59;4926636;29;20050;-60
2021/05/23 09:21:21;;;;;;;8.13;7.45;;;;;;;25.61;44.38;97118.00;4926422;29;20028;-60
2021/05/23 09:23:53;;;;;;;11.65;9.13;;;;;;;26.64;43.40;97150.09;4926520;29;20063;-61
2021/05/23 09:26:18;;;;;;;22.23;14.95;;;;;;;27.11;41.29;97150.34;4926734;29;20127;-59
2021/05/23 09:28:45;;;;;;;7.68;6.78;;;;;;;26.90;41.64;97139.97;4926282;29;20126;-60
2021/05/23 09:31:21;;;;;;;12.63;10.07;;;;;;;26.19;42.22;97142.28;4924115;29;20434;-60
2021/05/23 09:33:51;;;;;;;10.50;9.52;;;;;;;26.08;43.65;97144.03;4924780;29;20038;-61
2021/05/23 09:36:19;;;;;;;7.40;6.90;;;;;;;26.49;42.68;97117.88;4926262;29;20119;-62
2021/05/23 09:38:56;;;;;;;7.07;6.57;;;;;;;25.82;44.58;97139.81;4926111;29;20032;-60
2021/05/23 09:41:23;;;;;;;8.02;5.57;;;;;;;25.73;43.83;97137.75;4924797;29;20130;-61
2021/05/23 09:43:49;;;;;;;7.85;7.13;;;;;;;26.25;43.66;97139.63;4926676;29;20055;-61
2021/05/23 09:46:15;;;;;;;7.32;6.70;;;;;;;26.17;43.73;97133.47;4926321;29;20122;-61
2021/05/23 09:48:49;;;;;;;7.85;6.50;;;;;;;26.27;43.21;97114.41;4926233;29;20047;-60
2021/05/23 09:51:16;;;;;;;7.68;6.93;;;;;;;26.87;42.61;97126.72;4924342;29;20044;-61
2021/05/23 09:53:44;;;;;;;13.15;8.98;;;;;;;26.88;42.13;97125.44;4926180;29;20162;-60
2021/05/23 09:56:14;;;;;;;6.00;5.60;;;;;;;26.14;43.04;97133.63;4926123;29;20036;-60
2021/05/23 09:58:43;;;;;;;7.95;6.55;;;;;;;25.25;43.46;97000.31;4926275;29;20523;-62
2021/05/23 10:01:32;;;;;;;7.65;7.07;;;;;;;26.52;42.17;97123.38;4924411;29;20078;-60
2021/05/23 10:03:58;;;;;;;8.23;7.60;;;;;;;26.45;42.71;97069.72;4926767;29;20099;-61
2021/05/23 10:06:29;;;;;;;6.80;6.05;;;;;;;24.21;42.19;96784.41;4924727;29;20050;-60
2021/05/23 10:08:55;;;;;;;8.68;7.97;;;;;;;26.68;42.58;97116.63;4926302;29;20027;-61
2021/05/23 10:11:21;;;;;;;6.15;5.75;;;;;;;25.63;43.59;97031.16;4924308;29;20040;-60
2021/05/23 10:13:47;;;;;;;6.25;5.85;;;;;;;25.99;42.85;97112.72;4956385;28;20042;-60
2021/05/23 10:16:13;;;;;;;5.57;5.28;;;;;;;25.89;42.85;97060.06;4926139;29;20035;-60
2021/05/23 10:18:39;;;;;;;5.90;5.53;;;;;;;26.53;42.09;97109.97;4924752;29;20400;-62
2021/05/23 10:21:05;;;;;;;6.20;5.80;;;;;;;25.90;43.39;97107.84;4926164;29;20160;-61
2021/05/23 10:23:43;;;;;;;6.40;5.90;;;;;;;24.54;44.17;96814.59;4956424;28;20032;-61
2021/05/23 10:26:12;;;;;;;10.07;7.45;;;;;;;27.09;42.99;97101.69;4925982;29;20040;-61
2021/05/23 10:28:41;;;;;;;6.72;6.18;;;;;;;27.42;42.21;97102.56;4926107;29;20107;-61
2021/05/23 10:31:07;;;;;;;8.20;7.43;;;;;;;25.70;41.98;96828.56;4925389;29;20111;-63
2021/05/23 10:33:32;;;;;;;6.78;6.20;;;;;;;27.64;41.74;97097.41;4956541;28;20035;-61
2021/05/23 10:35:58;;;;;;;6.57;6.18;;;;;;;26.50;42.85;97029.31;4925461;29;20044;-61
2021/05/23 10:38:25;;;;;;;7.72;7.05;;;;;;;26.81;42.69;97096.56;4926107;29;20741;-60
2021/05/23 10:41:04;;;;;;;6.35;5.72;;;;;;;27.32;42.05;97086.78;4955309;28;20479;-61
2021/05/23 10:43:36;;;;;;;7.10;6.53;;;;;;;27.84;42.44;97089.06;4926149;29;20434;-60
2021/05/23 10:46:08;;;;;;;6.57;6.07;;;;;;;26.55;42.36;97051.41;4925145;29;20107;-61
2021/05/23 10:48:35;;;;;;;6.63;6.22;;;;;;;26.83;42.58;97094.00;4926089;29;20832;-61
2021/05/23 10:51:15;;;;;;;6.82;6.43;;;;;;;27.05;42.03;97061.25;4956468;28;20046;-60
2021/05/23 10:53:42;;;;;;;7.22;6.72;;;;;;;27.30;42.29;97095.00;4929129;29;20042;-61
2021/05/23 10:56:26;;;;;;;8.95;8.05;;;;;;;27.56;42.63;97093.31;4929028;29;20446;-61
2021/05/23 10:58:54;;;;;;;6.13;5.70;;;;;;;27.06;43.41;97085.59;4929250;29;20178;-60
2021/05/23 11:01:39;;;;;;;6.72;6.32;;;;;;;27.07;43.47;97086.38;4929201;29;20043;-61
2021/05/23 11:04:07;;;;;;;8.38;7.78;;;;;;;27.63;42.45;97081.56;4928930;29;20040;-61
2021/05/23 11:06:32;;;;;;;7.20;6.70;;;;;;;27.63;41.74;97084.41;4959139;28;20040;-61
2021/05/23 11:09:05;;;;;;;6.80;6.22;;;;;;;27.30;42.65;97089.31;4928695;29;20107;-61
2021/05/23 11:11:31;;;;;;;7.78;7.18;;;;;;;27.14;41.62;97041.28;4926883;29;20490;-61
2021/05/23 11:14:10;;;;;;;6.22;5.82;;;;;;;27.77;39.43;97078.00;4928744;29;20044;-62
2021/05/23 11:16:45;;;;;;;7.75;7.00;;;;;;;27.63;42.14;97070.19;4928689;29;20063;-60
2021/05/23 11:19:12;;;;;;;6.38;5.88;;;;;;;27.68;40.66;97068.72;4929274;29;20031;-60
2021/05/23 11:21:42;;;;;;;7.28;6.25;;;;;;;27.82;40.77;97074.50;4928998;29;20123;-60
2021/05/23 11:24:09;;;;;;;6.15;5.68;;;;;;;28.12;40.29;97070.53;4959472;28;20554;-61
2021/05/23 11:26:35;;;;;;;6.35;5.97;;;;;;;28.29;39.21;97062.34;4928605;29;20523;-61
2021/05/23 11:29:02;;;;;;;6.97;6.53;;;;;;;28.20;40.15;97058.78;4928913;29;20039;-60
2021/05/23 11:31:28;;;;;;;7.28;6.68;;;;;;;28.10;37.86;97056.00;4927721;29;20055;-61
2021/05/23 11:33:54;;;;;;;7.25;6.55;;;;;;;28.11;38.64;97059.63;4928784;29;20035;-61